• Join FlightAware (Why Join?)
  • Login
  • US Flag 
Trick or treat! (Boo!!) 
11:26PM EDT


 

Airport Tracker/Info


-or-


 

Live Flight TrackerFlight Track Log ✈ WJA348 ✈ 22-May-2013 ✈ CYYC - CYKA

Flight Track Log - Related Links

Times and Time Zones

All times are in EDT time to prevent confusion due to time zone crossing. See the WJA348 flight status page for this flight to view local times or setup timezone preferences in your user account.

Time Position Orientation Groundspeed Altitude Reporting Facility
EDT Latitude Longitude Course Direction KTS MPH feet Rate Location/Type
09:52PM 51.0167 -114.0667 192° South 210 242 6,300  Level Edmonton Center
09:53PM 50.9667 -114.1167 212° Southwest 260 299 9,100 2,340 Climbing Edmonton Center
09:54PM 50.9500 -114.2500 259° West 300 345 11,000 2,520 Climbing Edmonton Center
09:55PM 50.9833 -114.3667 294° West 320 368 14,200 2,040 Climbing Edmonton Center
09:56PM 51.0333 -114.5333 296° West 390 449 15,100 1,740 Climbing Edmonton Center
09:57PM 51.0333 -114.7000 270° West 420 483 17,700 2,640 Climbing Edmonton Center
09:58PM 51.0167 -114.9167 263° West 430 495 20,400 2,520 Climbing Edmonton Center
09:59PM 51.0000 -115.1000 262° West 430 495 22,800 2,160 Climbing Edmonton Center
10:00PM 51.0000 -115.2833 270° West 440 506 24,800 2,280 Climbing Edmonton Center
10:01PM 50.9667 -115.5000 256° West 460 529 27,400 2,520 Climbing Edmonton Center
10:02PM 50.9500 -115.6833 262° West 450 518 29,900 2,340 Climbing Edmonton Center
10:03PM 50.9333 -115.8833 263° West 430 495 32,100 1,740 Climbing Edmonton Center
10:04PM 50.9167 -116.0667 262° West 440 506 33,400 900 Climbing Edmonton Center
10:05PM 50.9167 -116.2667 270° West 450 518 34,000 300 Climbing Edmonton Center
10:06PM 50.8833 -116.4667 255° West 450 518 34,000  Level Edmonton Center
10:07PM 50.8667 -116.6500 262° West 440 506 34,000  Level Edmonton Center
10:08PM 50.8667 -116.8667 270° West 440 506 34,000  Level Edmonton Center
10:09PM 50.8500 -117.0500 262° West 440 506 34,000  Level Edmonton Center
10:10PM 50.8333 -117.2500 263° West 440 506 34,000 -480 Level Edmonton Center
10:11PM 50.8167 -117.4333 262° West 440 506 33,100 -1,440 Descending Edmonton Center
10:12PM 50.8167 -117.6167 270° West 440 506 31,200 -1,980 Descending Edmonton Center
10:13PM 50.7833 -117.8167 255° West 430 495 29,200 -1,920 Descending Edmonton Center
10:14PM 50.7833 -117.9833 270° West 410 472 27,400 -1,920 Descending Edmonton Center
10:15PM 50.7667 -118.1667 262° West 410 472 25,400 -1,860 Descending Edmonton Center
10:16PM 50.7667 -118.3500 270° West 400 460 23,700 -1,860 Descending Edmonton Center
10:17PM 50.7333 -118.5333 254° West 400 460 21,700 -1,860 Descending Edmonton Center
10:18PM 50.7333 -118.7000 270° West 390 449 20,000 -1,680 Descending Edmonton Center
10:19PM 50.7167 -118.8500 260° West 390 449 18,400 -1,800 Descending Edmonton Center
10:20PM 50.7000 -119.0333 262° West 380 437 16,500 -1,800 Descending Edmonton Center
10:21PM 50.6833 -119.1667 259° West 370 426 14,900 -1,740 Descending Edmonton Center
10:22PM 50.6833 -119.3500 270° West 350 403 13,100 -1,680 Descending Edmonton Center
10:23PM 50.6667 -119.4833 259° West 340 391 11,600 -1,020 Descending Edmonton Center
10:24PM 50.6667 -119.6167 270° West 320 368 11,100 -720 Descending Edmonton Center
10:25PM 50.6667 -119.6833 270° West 290 334 10,300 -1,140 Descending Vancouver Center
10:26PM 50.6667 -119.8167 270° West 280 322 8,900 -1,500 Descending Vancouver Center
10:27PM 50.6500 -119.9333 257° West 280 322 7,300 -1,500 Descending Vancouver Center
10:28PM 50.6500 -120.0333 270° West 270 311 5,900 -1,380 Descending Vancouver Center
10:29PM 50.6500 -120.1333 270° West 230 265 4,600 -1,200 Descending Vancouver Center
10:30PM 50.6667 -120.2333 285° West 210 242 3,600 -960 Descending Vancouver Center
10:31PM 50.6667 -120.3000 270° West 170 196 2,700 -900 Descending Vancouver Center
10:32PM 50.6667 -120.3667 270° West 160 184 1,900 -840 Descending Vancouver Center